Time;durP1;ratioP1;P1;durP2;ratioP2;P2;SDS_P1;SDS_P2;PMS_P1;PMS_P2;Temp;Humidity;BMP_temperature;BMP_pressure;BME280_temperature;BME280_humidity;BME280_pressure;Samples;Min_cycle;Max_cycle;Signal;HPM_P1;HPM_P2
2022/05/09 00:01:40;;;;;;;6.47;3.53;;;;;;;10.52;100.00;100740.94;5207305;22;20433;-64
2022/05/09 00:04:06;;;;;;;8.95;3.92;;;;;;;10.27;100.00;100740.44;5049268;28;20131;-65
2022/05/09 00:06:31;;;;;;;6.53;4.10;;;;;;;10.03;100.00;100707.72;4351622;28;10000647;-64
2022/05/09 00:08:57;;;;;;;6.55;4.20;;;;;;;10.07;100.00;100699.22;5050105;28;20454;-64
2022/05/09 00:11:22;;;;;;;8.93;3.97;;;;;;;10.53;100.00;100734.97;5049181;28;20017;-64
2022/05/09 00:13:48;;;;;;;8.55;4.18;;;;;;;9.78;100.00;100679.31;5050618;28;20028;-64
2022/05/09 00:16:13;;;;;;;6.28;4.07;;;;;;;10.39;100.00;100700.47;5050169;28;20086;-64
2022/05/09 00:18:39;;;;;;;7.38;4.05;;;;;;;10.55;100.00;100738.34;5049756;28;20487;-65
2022/05/09 00:21:05;;;;;;;8.00;3.67;;;;;;;10.41;100.00;100734.31;5050312;28;20052;-64
2022/05/09 00:23:30;;;;;;;7.47;3.90;;;;;;;9.81;100.00;100691.94;5050082;28;20029;-64
2022/05/09 00:25:55;;;;;;;8.43;3.97;;;;;;;10.53;100.00;100727.34;5050243;28;20421;-64
2022/05/09 00:28:21;;;;;;;9.10;4.45;;;;;;;10.14;100.00;100728.78;5050343;28;20040;-64
2022/05/09 00:30:47;;;;;;;7.50;4.50;;;;;;;10.19;100.00;100734.63;5049453;28;20028;-64
2022/05/09 00:33:12;;;;;;;8.40;4.35;;;;;;;9.85;100.00;100688.50;5050122;28;20640;-65
2022/05/09 00:35:40;;;;;;;10.02;4.30;;;;;;;10.21;100.00;100736.31;5050119;28;20041;-64
2022/05/09 00:38:07;;;;;;;8.98;4.57;;;;;;;10.02;100.00;100732.28;5049559;28;20029;-65
2022/05/09 00:40:33;;;;;;;6.20;4.50;;;;;;;9.87;100.00;100711.34;5049684;28;20395;-64
2022/05/09 00:42:58;;;;;;;5.93;4.30;;;;;;;10.10;100.00;100732.25;5049049;28;20048;-64
2022/05/09 00:45:26;;;;;;;11.40;4.80;;;;;;;9.89;100.00;100696.91;5049722;28;20033;-63
2022/05/09 00:47:52;;;;;;;9.07;4.60;;;;;;;9.80;100.00;100695.38;5049967;28;20040;-64
2022/05/09 00:50:31;;;;;;;8.88;4.55;;;;;;;9.62;100.00;100695.59;5049342;28;20041;-64
2022/05/09 00:53:04;;;;;;;9.35;4.28;;;;;;;10.30;100.00;100720.91;5049631;28;20029;-64
2022/05/09 00:55:42;;;;;;;7.35;4.90;;;;;;;9.71;100.00;100687.84;5049523;28;20076;-64
2022/05/09 00:58:30;;;;;;;6.70;4.65;;;;;;;10.44;100.00;100724.09;5065027;28;20025;-64
2022/05/09 01:00:57;;;;;;;11.25;5.78;;;;;;;10.09;100.00;100718.66;5048856;28;20052;-64
2022/05/09 01:03:32;;;;;;;11.90;5.75;;;;;;;10.31;100.00;100686.19;5049374;28;20093;-64
2022/05/09 01:05:58;;;;;;;11.88;5.80;;;;;;;9.38;100.00;100665.44;5048991;28;20041;-64
2022/05/09 01:08:25;;;;;;;8.80;6.93;;;;;;;9.66;100.00;100693.84;5049758;28;20116;-64
2022/05/09 01:10:51;;;;;;;12.20;7.68;;;;;;;9.38;100.00;100650.22;5049564;28;20036;-64
2022/05/09 01:13:20;;;;;;;13.13;7.43;;;;;;;9.79;100.00;100708.91;5048907;28;20396;-64
2022/05/09 01:15:48;;;;;;;12.88;7.20;;;;;;;9.69;100.00;100707.34;5048737;28;20029;-65
2022/05/09 01:18:16;;;;;;;11.88;7.78;;;;;;;9.51;100.00;100677.09;5048792;28;20577;-64
2022/05/09 01:20:43;;;;;;;12.68;7.57;;;;;;;9.72;100.00;100699.69;5049091;28;20083;-64
2022/05/09 01:23:10;;;;;;;11.77;7.32;;;;;;;9.82;100.00;100702.97;5048881;28;20725;-64
2022/05/09 01:25:36;;;;;;;8.60;7.03;;;;;;;9.96;100.00;100717.16;5048666;28;20093;-65
2022/05/09 01:28:02;;;;;;;13.18;8.13;;;;;;;9.66;100.00;100709.94;5048597;28;20466;-64
2022/05/09 01:30:38;;;;;;;12.40;8.18;;;;;;;9.75;100.00;100712.34;5048670;28;20191;-64
2022/05/09 01:33:07;;;;;;;12.00;7.50;;;;;;;9.80;100.00;100697.91;5046841;28;20086;-64
2022/05/09 01:35:54;;;;;;;11.43;8.05;;;;;;;9.26;100.00;100660.50;5048968;28;20087;-64
2022/05/09 01:38:34;;;;;;;14.32;7.78;;;;;;;9.32;100.00;100675.66;5048350;28;20079;-64
2022/05/09 01:41:00;;;;;;;12.35;7.55;;;;;;;9.80;100.00;100702.13;5048932;28;20151;-64
2022/05/09 01:43:35;;;;;;;11.75;8.15;;;;;;;9.49;100.00;100711.81;5047823;28;20072;-64
2022/05/09 01:46:05;;;;;;;11.55;7.97;;;;;;;9.75;100.00;100697.09;5048546;28;20175;-65
2022/05/09 01:51:15;;;;;;;17.27;9.52;;;;;;;9.20;100.00;100698.63;5048651;28;20062;-64
2022/05/09 01:53:45;;;;;;;15.70;9.20;;;;;;;9.08;100.00;100653.94;5048128;28;20521;-64
2022/05/09 01:56:13;;;;;;;14.45;9.25;;;;;;;9.19;100.00;100687.63;5048784;28;20036;-63
2022/05/09 01:58:38;;;;;;;16.00;9.05;;;;;;;9.28;100.00;100671.47;5028755;28;20081;-64
2022/05/09 02:01:05;;;;;;;15.98;9.10;;;;;;;9.33;100.00;100679.88;5032629;28;20082;-64
2022/05/09 02:03:31;;;;;;;14.00;9.32;;;;;;;9.51;100.00;100689.78;5046550;28;20540;-64
2022/05/09 02:05:56;;;;;;;15.13;9.30;;;;;;;9.38;100.00;100675.59;5046404;28;20044;-64
2022/05/09 02:08:22;;;;;;;12.50;8.43;;;;;;;9.41;100.00;100691.59;5047024;28;20064;-64
2022/05/09 02:10:47;;;;;;;15.55;8.45;;;;;;;9.30;100.00;100679.91;5047794;28;20536;-64
2022/05/09 02:13:12;;;;;;;15.75;8.93;;;;;;;9.47;100.00;100685.63;5047866;28;20395;-64
2022/05/09 02:15:38;;;;;;;13.98;8.75;;;;;;;9.48;100.00;100685.63;5047817;28;20029;-64
2022/05/09 02:18:03;;;;;;;14.52;9.05;;;;;;;9.12;100.00;100662.34;5047381;28;20219;-64
2022/05/09 02:20:29;;;;;;;14.52;8.95;;;;;;;8.95;100.00;100646.50;5047727;28;20033;-64
2022/05/09 02:22:55;;;;;;;14.32;8.85;;;;;;;8.96;100.00;100645.63;5047660;28;20120;-64
2022/05/09 02:25:33;;;;;;;15.65;9.10;;;;;;;9.15;100.00;100667.41;5047614;28;20037;-63
2022/05/09 02:28:01;;;;;;;15.23;8.88;;;;;;;9.29;100.00;100653.69;5046581;28;20163;-64
2022/05/09 02:30:27;;;;;;;13.48;8.60;;;;;;;9.38;100.00;100694.19;5047394;28;20170;-64
2022/05/09 02:32:53;;;;;;;15.07;9.27;;;;;;;9.21;100.00;100691.00;5047557;28;20035;-63
2022/05/09 02:35:21;;;;;;;15.25;9.25;;;;;;;9.41;100.00;100690.75;5039308;28;20041;-63
2022/05/09 02:37:48;;;;;;;16.42;8.80;;;;;;;9.16;100.00;100692.75;5040130;28;20039;-64
2022/05/09 02:40:14;;;;;;;12.77;8.98;;;;;;;9.01;100.00;100684.47;5047444;28;20512;-65
2022/05/09 02:42:40;;;;;;;14.80;9.45;;;;;;;9.19;100.00;100631.81;5046664;28;20036;-64
2022/05/09 02:45:07;;;;;;;13.90;9.25;;;;;;;9.56;100.00;100695.69;5047181;28;20515;-65
2022/05/09 02:47:32;;;;;;;12.45;8.25;;;;;;;9.50;100.00;100699.13;5046550;28;20059;-64
2022/05/09 02:49:58;;;;;;;11.48;9.10;;;;;;;9.55;100.00;100701.59;5047561;28;20510;-64
2022/05/09 02:52:23;;;;;;;12.50;8.13;;;;;;;9.48;100.00;100698.31;5047377;28;20029;-64
2022/05/09 02:54:49;;;;;;;14.63;8.27;;;;;;;9.42;100.00;100705.16;5047366;28;20037;-63
2022/05/09 02:57:14;;;;;;;12.70;8.15;;;;;;;9.65;100.00;100708.25;5047313;28;20043;-63
2022/05/09 02:59:39;;;;;;;14.38;8.32;;;;;;;9.00;100.00;100708.13;5046780;28;20021;-64
2022/05/09 03:02:05;;;;;;;11.43;7.88;;;;;;;8.86;100.00;100703.19;5046995;28;20047;-64
2022/05/09 03:04:39;;;;;;;16.30;7.53;;;;;;;9.33;100.00;100711.16;5047528;28;20025;-64
2022/05/09 03:07:06;;;;;;;12.00;7.45;;;;;;;8.95;100.00;100684.53;5046616;28;20045;-64
2022/05/09 03:09:32;;;;;;;9.65;7.32;;;;;;;9.32;100.00;100719.63;5047310;28;20037;-63
2022/05/09 03:11:57;;;;;;;12.52;7.43;;;;;;;9.18;100.00;100715.56;5047077;28;20037;-64
2022/05/09 03:14:23;;;;;;;14.00;7.45;;;;;;;9.20;100.00;100724.84;5046784;28;20469;-65
2022/05/09 03:16:48;;;;;;;13.20;7.13;;;;;;;9.49;100.00;100721.97;5046972;28;20039;-63
2022/05/09 03:19:14;;;;;;;11.23;7.20;;;;;;;9.49;100.00;100716.88;5045279;28;20047;-64
2022/05/09 03:21:39;;;;;;;13.63;7.82;;;;;;;9.14;100.00;100724.06;5046356;28;20063;-64
2022/05/09 03:24:05;;;;;;;14.65;7.70;;;;;;;9.37;100.00;100727.19;5046367;28;20037;-63
2022/05/09 03:26:31;;;;;;;16.02;7.75;;;;;;;9.09;100.00;100731.69;5046477;28;20525;-63
2022/05/09 03:28:57;;;;;;;18.85;7.55;;;;;;;9.37;100.00;100730.56;5046563;28;20029;-64
2022/05/09 03:31:23;;;;;;;12.60;7.75;;;;;;;9.27;100.00;100693.47;5046800;28;20025;-65
2022/05/09 03:33:48;;;;;;;11.30;8.18;;;;;;;9.07;100.00;100695.38;5046994;28;20041;-64
2022/05/09 03:36:14;;;;;;;15.60;7.68;;;;;;;9.50;100.00;100719.44;5047160;28;20418;-63
2022/05/09 03:38:39;;;;;;;12.98;7.57;;;;;;;9.65;100.00;100727.72;5046856;28;20055;-65
2022/05/09 03:41:05;;;;;;;11.63;7.53;;;;;;;9.89;100.00;100738.41;5046878;28;20041;-64
2022/05/09 03:43:31;;;;;;;10.80;7.18;;;;;;;9.41;100.00;100738.97;5046635;28;20063;-64
2022/05/09 03:45:58;;;;;;;12.60;7.55;;;;;;;9.36;100.00;100736.50;5047245;28;20032;-65
2022/05/09 03:48:24;;;;;;;11.35;7.60;;;;;;;9.32;100.00;100711.19;5054088;28;20572;-66
2022/05/09 03:50:50;;;;;;;11.80;7.45;;;;;;;9.48;100.00;100705.94;5039035;28;20140;-65
2022/05/09 03:53:15;;;;;;;11.65;6.75;;;;;;;9.86;100.00;100728.28;5046426;28;20087;-64
2022/05/09 03:55:41;;;;;;;12.93;6.85;;;;;;;9.65;100.00;100708.25;5045279;28;20029;-62
2022/05/09 03:58:07;;;;;;;12.45;7.03;;;;;;;10.12;100.00;100740.69;5045035;28;20083;-63
2022/05/09 04:00:35;;;;;;;15.25;7.72;;;;;;;9.74;100.00;100743.69;5046549;28;20025;-64
2022/05/09 04:03:01;;;;;;;13.48;7.70;;;;;;;9.84;100.00;100752.88;5046358;28;20056;-64
2022/05/09 04:05:30;;;;;;;11.40;7.88;;;;;;;9.98;100.00;100756.03;5044651;28;20033;-66
2022/05/09 04:07:57;;;;;;;10.75;6.88;;;;;;;9.80;100.00;100761.38;5049822;28;20143;-66
2022/05/09 04:10:29;;;;;;;9.10;7.43;;;;;;;9.63;100.00;100719.28;5048287;28;20044;-67
2022/05/09 04:12:55;;;;;;;14.23;7.00;;;;;;;10.00;100.00;100754.31;5049797;28;20029;-65
2022/05/09 04:18:05;;;;;;;11.55;6.38;;;;;;;11.12;100.00;100735.66;5049939;28;20094;-65
2022/05/09 04:20:32;;;;;;;9.20;6.25;;;;;;;10.69;100.00;100719.47;5049537;28;20032;-65
2022/05/09 04:22:59;;;;;;;11.02;7.30;;;;;;;10.30;100.00;100723.44;5049435;28;20151;-64
2022/05/09 04:25:25;;;;;;;10.60;6.35;;;;;;;10.96;100.00;100753.75;5049578;28;20032;-64
2022/05/09 04:27:51;;;;;;;11.07;5.90;;;;;;;11.11;100.00;100745.88;5049765;28;20143;-66
2022/05/09 04:30:17;;;;;;;12.55;6.72;;;;;;;10.49;100.00;100767.25;5049684;28;20032;-67
2022/05/09 04:32:42;;;;;;;10.70;6.63;;;;;;;10.08;100.00;100741.53;5049507;28;20055;-66
2022/05/09 04:35:17;;;;;;;11.05;6.90;;;;;;;10.11;100.00;100732.22;5049286;28;20484;-63
2022/05/09 04:37:45;;;;;;;12.07;6.82;;;;;;;10.81;100.00;100762.50;5048300;28;20029;-64
2022/05/09 04:40:11;;;;;;;11.30;6.93;;;;;;;10.81;100.00;100761.66;5055608;28;20028;-64
2022/05/09 04:42:37;;;;;;;12.73;7.22;;;;;;;11.20;100.00;100755.88;5047564;28;20399;-65
2022/05/09 04:45:03;;;;;;;13.63;7.32;;;;;;;11.64;100.00;100745.69;5049203;28;20431;-66
2022/05/09 04:47:28;;;;;;;14.50;8.60;;;;;;;11.79;100.00;100780.22;5049248;28;20032;-66
2022/05/09 04:49:53;;;;;;;18.20;9.88;;;;;;;11.84;100.00;100775.88;5051770;28;20044;-66
2022/05/09 04:52:19;;;;;;;14.40;6.53;;;;;;;11.96;100.00;100758.63;5053091;28;20021;-66
2022/05/09 04:54:44;;;;;;;13.20;7.38;;;;;;;11.91;100.00;100782.53;5046801;28;20028;-65
2022/05/09 04:57:10;;;;;;;14.32;7.45;;;;;;;11.63;100.00;100748.25;5033128;28;20025;-65
2022/05/09 04:59:35;;;;;;;12.90;7.07;;;;;;;11.31;100.00;100761.59;5048180;28;20468;-65
2022/05/09 05:02:00;;;;;;;13.43;7.45;;;;;;;11.44;100.00;100760.53;5032583;28;20022;-67
2022/05/09 05:04:26;;;;;;;12.75;6.95;;;;;;;11.88;100.00;100788.56;5048687;28;20111;-67
2022/05/09 05:06:52;;;;;;;13.18;6.50;;;;;;;11.97;100.00;100793.44;5052650;28;20437;-67
2022/05/09 05:09:17;;;;;;;18.20;8.75;;;;;;;12.13;100.00;100791.41;5052862;28;20078;-66
2022/05/09 05:11:42;;;;;;;12.52;7.35;;;;;;;12.73;100.00;100795.16;5052615;28;20436;-66
2022/05/09 05:14:08;;;;;;;12.40;6.50;;;;;;;12.94;100.00;100801.44;5053202;28;20047;-67
2022/05/09 05:19:17;;;;;;;9.65;5.60;;;;;;;12.99;100.00;100746.03;5052719;28;20052;-66
2022/05/09 05:21:43;;;;;;;7.38;5.45;;;;;;;12.87;100.00;100764.19;5052735;28;20033;-66
2022/05/09 05:24:09;;;;;;;12.43;5.18;;;;;;;13.14;100.00;100803.53;5053195;28;20064;-65
2022/05/09 05:26:35;;;;;;;8.18;5.30;;;;;;;13.70;100.00;100788.41;5052302;28;20127;-66
2022/05/09 05:29:00;;;;;;;11.93;6.32;;;;;;;14.04;100.00;100810.44;5052750;28;20413;-64
2022/05/09 05:31:25;;;;;;;13.48;6.65;;;;;;;13.86;100.00;100770.91;5052808;28;20543;-65
2022/05/09 05:33:51;;;;;;;12.35;5.95;;;;;;;14.33;100.00;100780.63;5052084;28;20029;-65
2022/05/09 05:36:16;;;;;;;11.45;5.97;;;;;;;13.81;100.00;100829.81;5052471;28;20060;-64
2022/05/09 05:38:43;;;;;;;10.10;5.40;;;;;;;13.94;100.00;100813.25;5052328;28;20111;-64
2022/05/09 05:41:09;;;;;;;11.60;5.40;;;;;;;14.11;100.00;100819.59;5052428;28;20025;-66
2022/05/09 05:43:34;;;;;;;9.43;5.35;;;;;;;14.90;100.00;100813.78;5052239;28;20033;-65
2022/05/09 05:46:00;;;;;;;8.48;5.10;;;;;;;14.44;100.00;100821.22;5052351;28;20021;-65
2022/05/09 05:48:25;;;;;;;6.72;4.75;;;;;;;14.59;100.00;100816.47;5051955;28;20037;-65
2022/05/09 05:50:52;;;;;;;6.15;4.10;;;;;;;14.19;100.00;100804.88;5052422;28;20025;-65
2022/05/09 05:53:19;;;;;;;8.95;4.07;;;;;;;14.50;100.00;100809.06;5051638;28;20116;-65
2022/05/09 05:55:44;;;;;;;8.30;4.65;;;;;;;15.07;100.00;100829.44;5052121;28;20166;-63
2022/05/09 05:58:10;;;;;;;9.70;4.18;;;;;;;14.15;100.00;100800.75;5052220;28;20044;-67
2022/05/09 06:00:36;;;;;;;6.35;4.03;;;;;;;14.96;100.00;100815.28;5050650;28;20090;-67
2022/05/09 06:03:02;;;;;;;9.77;4.38;;;;;;;16.17;100.00;100817.03;5051867;28;20049;-64
2022/05/09 06:05:27;;;;;;;6.53;3.67;;;;;;;14.60;100.00;100830.09;5052090;28;20190;-64
2022/05/09 06:07:55;;;;;;;6.85;3.50;;;;;;;14.22;100.00;100822.72;5051692;28;20119;-64
2022/05/09 06:10:21;;;;;;;10.10;3.35;;;;;;;14.54;100.00;100826.00;5045696;28;20140;-65
2022/05/09 06:12:47;;;;;;;5.00;3.05;;;;;;;15.23;100.00;100797.28;5039330;28;20517;-65
2022/05/09 06:15:28;;;;;;;6.22;3.30;;;;;;;16.04;100.00;100814.09;5032061;28;20029;-65
2022/05/09 06:17:54;;;;;;;5.13;2.70;;;;;;;16.00;100.00;100809.97;5031738;28;20029;-64
2022/05/09 06:20:20;;;;;;;6.18;3.05;;;;;;;15.58;100.00;100802.09;5031507;28;20276;-65
2022/05/09 06:22:46;;;;;;;7.25;2.70;;;;;;;15.80;100.00;100830.38;5028747;28;20488;-63
2022/05/09 06:25:14;;;;;;;8.10;2.65;;;;;;;16.25;100.00;100827.84;5029995;28;20030;-65
2022/05/09 06:27:41;;;;;;;6.60;3.60;;;;;;;15.71;100.00;100801.66;5031426;28;20112;-64
2022/05/09 06:30:09;;;;;;;8.27;2.80;;;;;;;15.63;100.00;100821.59;5030757;28;20029;-65
2022/05/09 06:32:34;;;;;;;5.22;2.63;;;;;;;16.38;100.00;100826.50;5030633;28;20503;-64
2022/05/09 06:35:01;;;;;;;4.68;2.72;;;;;;;16.61;100.00;100799.94;5030620;28;20029;-64
2022/05/09 06:37:29;;;;;;;5.07;2.10;;;;;;;16.82;100.00;100825.63;5030582;28;20029;-64
2022/05/09 06:39:54;;;;;;;5.93;2.33;;;;;;;15.64;100.00;100836.94;5030610;28;20127;-64
2022/05/09 06:42:20;;;;;;;5.15;2.42;;;;;;;15.71;100.00;100804.22;5030208;28;20026;-65
2022/05/09 06:44:46;;;;;;;8.18;2.50;;;;;;;16.01;100.00;100793.66;5030230;28;20112;-63
2022/05/09 06:47:12;;;;;;;7.15;3.03;;;;;;;16.32;100.00;100824.97;5031372;28;20120;-64
2022/05/09 06:49:37;;;;;;;6.45;2.60;;;;;;;16.13;100.00;100792.38;5031002;28;20540;-64
2022/05/09 06:52:03;;;;;;;8.00;2.85;;;;;;;16.82;100.00;100799.94;5046423;28;20033;-65
2022/05/09 06:54:28;;;;;;;7.80;2.60;;;;;;;16.39;100.00;100829.00;5031437;28;20026;-64
2022/05/09 06:56:54;;;;;;;6.05;2.60;;;;;;;17.47;100.00;100798.94;4699148;28;10000024;-64
2022/05/09 06:59:20;;;;;;;6.90;2.60;;;;;;;17.12;100.00;100797.84;5045677;28;20597;-63
2022/05/09 07:01:46;;;;;;;7.57;2.97;;;;;;;17.02;100.00;100825.66;5047363;28;20025;-64
2022/05/09 07:04:11;;;;;;;4.03;2.67;;;;;;;17.57;100.00;100800.25;5046861;28;20451;-65
2022/05/09 07:06:37;;;;;;;6.97;2.60;;;;;;;16.82;100.00;100828.19;5047333;28;20087;-64
2022/05/09 07:09:05;;;;;;;6.78;2.40;;;;;;;17.43;95.42;100818.78;5046982;28;20471;-65
2022/05/09 07:11:31;;;;;;;8.32;2.50;;;;;;;17.74;93.59;100818.34;5046600;28;20031;-64
2022/05/09 07:13:57;;;;;;;6.53;2.90;;;;;;;17.17;96.47;100824.19;5046770;28;20414;-65
2022/05/09 07:16:22;;;;;;;7.07;2.70;;;;;;;17.66;94.11;100797.25;5046723;28;20041;-64
2022/05/09 07:18:47;;;;;;;5.18;2.38;;;;;;;17.14;90.21;100819.16;5046924;28;20044;-65
2022/05/09 07:21:13;;;;;;;8.13;2.53;;;;;;;17.85;87.14;100816.97;5047130;28;20032;-65
2022/05/09 07:23:39;;;;;;;8.30;3.13;;;;;;;17.32;94.79;100821.81;5046429;28;20037;-65
2022/05/09 07:26:04;;;;;;;4.68;2.65;;;;;;;16.84;95.92;100802.44;5046615;28;20041;-64
2022/05/09 07:28:30;;;;;;;6.70;3.50;;;;;;;17.54;89.87;100818.38;5046384;28;20029;-65
2022/05/09 07:30:58;;;;;;;5.55;2.60;;;;;;;18.85;84.70;100805.41;5046796;28;20036;-65
2022/05/09 07:33:23;;;;;;;8.60;2.78;;;;;;;17.46;86.82;100782.66;5046502;28;20137;-64
2022/05/09 07:35:49;;;;;;;5.60;2.55;;;;;;;17.73;88.40;100820.06;5046689;28;20121;-64
2022/05/09 07:38:15;;;;;;;5.32;2.70;;;;;;;17.77;92.28;100798.44;5046369;28;20125;-65
2022/05/09 07:40:44;;;;;;;7.88;3.40;;;;;;;17.35;92.39;100785.69;5046480;28;20029;-65
2022/05/09 07:43:23;;;;;;;9.70;3.80;;;;;;;17.89;93.53;100790.19;5045987;28;20434;-64
2022/05/09 07:45:51;;;;;;;8.52;4.65;;;;;;;17.95;92.17;100791.66;5046366;28;20266;-64
2022/05/09 07:48:19;;;;;;;6.03;3.20;;;;;;;17.94;93.82;100818.28;5046733;28;20043;-64
2022/05/09 07:50:45;;;;;;;8.38;3.08;;;;;;;17.59;99.77;100788.16;5046689;28;20036;-64
2022/05/09 07:53:20;;;;;;;5.72;3.10;;;;;;;18.23;96.50;100819.53;5046610;28;20037;-64
2022/05/09 07:55:46;;;;;;;7.82;3.40;;;;;;;18.83;94.06;100822.69;5046148;28;20067;-67
2022/05/09 07:58:12;;;;;;;11.50;4.70;;;;;;;18.39;100.00;100815.34;5045988;28;20459;-66
2022/05/09 08:00:39;;;;;;;8.57;3.90;;;;;;;18.30;95.63;100819.22;5046610;28;20191;-64
2022/05/09 08:03:06;;;;;;;8.07;3.28;;;;;;;18.53;91.25;100800.97;5046180;28;20110;-67
2022/05/09 08:05:34;;;;;;;11.07;3.00;;;;;;;19.49;85.07;100821.09;5046341;28;20116;-66
2022/05/09 08:07:59;;;;;;;5.22;2.50;;;;;;;18.82;79.57;100813.28;5046269;28;20044;-66
2022/05/09 08:10:25;;;;;;;5.70;1.90;;;;;;;19.02;78.85;100789.09;5044688;28;20414;-66
2022/05/09 08:12:50;;;;;;;5.70;1.92;;;;;;;18.09;76.95;100794.44;5046579;28;20493;-67
2022/05/09 08:15:19;;;;;;;8.77;3.47;;;;;;;17.79;75.69;100800.94;5046247;28;20411;-66
2022/05/09 08:17:46;;;;;;;5.72;1.77;;;;;;;18.61;74.44;100831.50;5046664;28;20408;-65
2022/05/09 08:20:13;;;;;;;6.50;1.65;;;;;;;18.85;71.88;100820.88;5046593;28;20540;-64
2022/05/09 08:22:40;;;;;;;5.18;1.70;;;;;;;17.88;77.10;100810.84;5060738;28;20471;-63
2022/05/09 08:25:07;;;;;;;3.28;1.50;;;;;;;18.35;72.71;100799.22;5048625;28;20029;-66
2022/05/09 08:27:33;;;;;;;3.92;1.67;;;;;;;19.04;71.33;100825.94;5049832;28;20528;-67
2022/05/09 08:29:59;;;;;;;5.85;2.00;;;;;;;18.76;72.66;100811.00;5048703;28;20033;-65
2022/05/09 08:32:26;;;;;;;6.90;2.38;;;;;;;18.58;73.43;100788.69;5049817;28;20037;-65
2022/05/09 08:34:53;;;;;;;5.13;1.98;;;;;;;19.66;71.53;100809.94;5050405;28;20029;-64
2022/05/09 08:37:19;;;;;;;5.05;1.92;;;;;;;19.73;72.20;100819.84;5049838;28;20033;-66
2022/05/09 08:39:45;;;;;;;7.43;2.55;;;;;;;18.97;75.33;100801.41;5050141;28;20029;-66
2022/05/09 08:42:25;;;;;;;5.22;2.00;;;;;;;19.33;72.67;100835.69;5049807;28;20065;-64
2022/05/09 08:44:57;;;;;;;6.40;2.20;;;;;;;19.79;72.07;100829.84;5049497;28;20382;-65
2022/05/09 08:47:22;;;;;;;6.00;2.45;;;;;;;19.45;72.87;100834.25;5048227;28;20029;-65
2022/05/09 08:50:17;;;;;;;6.45;2.05;;;;;;;19.07;74.33;100832.72;5049509;28;20127;-64
2022/05/09 08:52:49;;;;;;;5.03;2.13;;;;;;;19.27;73.59;100825.66;5027742;28;20056;-65
2022/05/09 08:55:23;;;;;;;5.60;2.20;;;;;;;20.09;71.03;100799.00;5053381;28;20021;-64
2022/05/09 08:57:58;;;;;;;5.50;1.90;;;;;;;20.47;68.01;100807.25;5053246;28;20025;-65
2022/05/09 09:00:30;;;;;;;4.15;2.10;;;;;;;19.96;69.83;100828.97;5053170;28;20029;-66
2022/05/09 09:03:00;;;;;;;;;;;;;;;20.45;69.37;100824.59;5051936;28;20045;-66
2022/05/09 09:05:28;;;;;;;8.63;2.22;;;;;;;20.47;67.39;100812.44;5051110;28;19923;-65
2022/05/09 09:08:02;;;;;;;5.35;2.10;;;;;;;20.93;66.72;100826.19;5052686;28;20120;-66
2022/05/09 09:11:05;;;;;;;4.38;2.20;;;;;;;20.94;67.32;100822.66;5052869;28;20040;-66
2022/05/09 09:14:18;;;;;;;5.72;2.10;;;;;;;20.37;67.37;100824.19;5040032;28;20045;-66
2022/05/09 09:17:00;;;;;;;6.15;2.42;;;;;;;19.55;68.27;100794.19;5010654;28;20045;-65
2022/05/09 09:19:28;;;;;;;;;;;;;;;19.91;67.51;100820.63;5049089;28;20442;-66
2022/05/09 09:22:15;;;;;;;5.57;2.40;;;;;;;20.23;67.58;100826.69;5052658;28;20285;-66
2022/05/09 09:24:59;;;;;;;4.60;2.20;;;;;;;21.31;66.43;100814.50;5052748;28;20064;-66
2022/05/09 09:27:42;;;;;;;5.85;2.33;;;;;;;21.19;65.95;100817.81;5052115;28;20108;-66
2022/05/09 09:30:11;;;;;;;5.93;2.75;;;;;;;20.74;67.24;100823.81;5052680;28;20036;-66
2022/05/09 09:32:42;;;;;;;6.80;2.70;;;;;;;20.35;67.11;100788.09;5052542;28;20028;-65
2022/05/09 09:35:08;;;;;;;7.28;3.10;;;;;;;20.30;69.61;100820.28;5052220;28;20121;-65
2022/05/09 09:37:43;;;;;;;4.95;2.65;;;;;;;20.42;66.16;100810.09;5052351;28;20025;-66
2022/05/09 09:40:09;;;;;;;4.45;2.70;;;;;;;21.03;65.24;100791.16;5052465;28;20039;-66
2022/05/09 09:42:35;;;;;;;5.45;3.17;;;;;;;20.65;66.43;100807.09;5052294;28;20037;-66
2022/05/09 09:45:21;;;;;;;6.38;2.60;;;;;;;22.22;62.65;100791.66;5052569;28;20033;-66
2022/05/09 09:47:46;;;;;;;5.38;2.63;;;;;;;22.34;62.11;100790.88;5052577;28;20183;-67
2022/05/09 09:50:25;;;;;;;4.88;2.28;;;;;;;21.12;65.27;100788.03;5052182;28;20116;-65
2022/05/09 09:52:58;;;;;;;8.45;2.95;;;;;;;20.80;66.34;100800.19;5051165;28;20031;-66
2022/05/09 09:55:31;;;;;;;9.93;2.92;;;;;;;22.31;63.73;100789.31;5067530;28;20124;-65
2022/05/09 09:58:17;;;;;;;8.55;2.97;;;;;;;22.44;64.62;100782.41;5052271;28;20033;-65
2022/05/09 10:00:42;;;;;;;6.82;2.65;;;;;;;22.06;62.25;100760.69;5050199;28;20171;-66
2022/05/09 10:03:26;;;;;;;3.95;2.50;;;;;;;21.98;61.91;100788.84;5051982;28;20570;-66
2022/05/09 10:05:54;;;;;;;9.07;2.75;;;;;;;21.15;65.05;100786.13;5052291;28;20021;-66
2022/05/09 10:08:34;;;;;;;5.60;2.50;;;;;;;22.08;62.87;100783.91;5052117;28;20483;-66
2022/05/09 10:11:08;;;;;;;5.80;2.70;;;;;;;20.97;64.57;100732.84;5051428;28;20045;-65
2022/05/09 10:13:47;;;;;;;8.70;3.10;;;;;;;20.97;65.41;100783.72;5052013;28;20120;-65
2022/05/09 10:16:41;;;;;;;4.93;2.65;;;;;;;21.93;64.94;100775.31;5052058;28;20211;-70
2022/05/09 10:19:11;;;;;;;8.02;3.22;;;;;;;22.03;66.05;100780.75;4698081;28;10000088;-67
2022/05/09 10:24:47;;;;;;;5.55;3.08;;;;;;;22.46;66.47;100771.13;5048262;28;20128;-64
2022/05/09 10:27:22;;;;;;;6.82;3.10;;;;;;;22.80;66.03;100778.41;5047910;28;20036;-64
2022/05/09 10:29:50;;;;;;;7.35;3.40;;;;;;;22.39;65.39;100768.91;5047363;28;20040;-64
2022/05/09 10:32:30;;;;;;;7.75;3.28;;;;;;;23.01;63.96;100740.66;5047812;28;20094;-64
2022/05/09 10:35:11;;;;;;;6.03;3.10;;;;;;;22.49;64.17;100763.13;5046586;28;20033;-64
2022/05/09 10:37:48;;;;;;;5.22;3.30;;;;;;;22.17;67.23;100766.03;5046367;28;20203;-65
2022/05/09 10:40:32;;;;;;;6.53;3.33;;;;;;;22.67;66.90;100762.81;5047393;28;20064;-65
2022/05/09 10:43:08;;;;;;;6.13;3.17;;;;;;;23.08;66.01;100753.09;5047431;28;20032;-68
2022/05/09 10:45:41;;;;;;;15.60;3.58;;;;;;;23.49;63.65;100728.72;5047602;28;20043;-67
2022/05/09 10:48:36;;;;;;;7.82;3.30;;;;;;;23.19;65.00;100755.00;5046958;28;20025;-68
2022/05/09 10:51:19;;;;;;;5.65;2.90;;;;;;;22.39;66.59;100755.97;5047606;28;20037;-66
2022/05/09 10:53:57;;;;;;;7.47;2.75;;;;;;;22.70;63.81;100751.41;5045824;28;20147;-67
2022/05/09 10:56:31;;;;;;;4.75;2.13;;;;;;;22.16;64.28;100722.09;5047452;28;20032;-67
2022/05/09 10:59:07;;;;;;;7.35;3.53;;;;;;;23.23;60.72;100720.91;5047292;28;20078;-67
2022/05/09 11:01:39;;;;;;;7.72;2.65;;;;;;;22.96;63.27;100719.38;5047011;28;20029;-67
2022/05/09 11:04:05;;;;;;;5.50;2.50;;;;;;;21.98;62.92;100726.66;5047316;28;20118;-67
2022/05/09 11:06:50;;;;;;;6.43;2.45;;;;;;;21.95;65.09;100737.22;5046795;28;20457;-67
2022/05/09 11:09:50;;;;;;;6.45;2.50;;;;;;;21.81;66.67;100745.00;5046995;28;20024;-67
2022/05/09 11:12:21;;;;;;;4.80;2.25;;;;;;;21.27;67.89;100746.56;5047152;28;20123;-67
2022/05/09 11:15:11;;;;;;;4.90;2.10;;;;;;;20.80;69.40;100725.22;5047351;28;20186;-67
2022/05/09 11:17:45;;;;;;;6.47;2.20;;;;;;;21.33;68.70;100750.56;5046695;28;20048;-67
2022/05/09 11:20:28;;;;;;;8.05;2.50;;;;;;;20.95;70.75;100750.22;5046606;28;20457;-67
2022/05/09 11:23:06;;;;;;;9.63;2.40;;;;;;;21.39;71.50;100742.44;5047152;28;20064;-67
2022/05/09 11:25:49;;;;;;;12.73;2.58;;;;;;;21.40;70.51;100736.31;5046743;28;20465;-67
2022/05/09 11:28:23;;;;;;;5.53;2.25;;;;;;;21.72;69.49;100737.78;5045151;28;20036;-66
2022/05/09 11:31:03;;;;;;;8.40;2.88;;;;;;;21.17;70.25;100737.72;5046515;28;20029;-66
2022/05/09 11:33:58;;;;;;;4.57;2.28;;;;;;;21.25;71.64;100745.00;5046872;28;20407;-66
2022/05/09 11:36:38;;;;;;;5.95;2.70;;;;;;;21.18;70.01;100744.53;5027702;28;20041;-66
2022/05/09 11:39:06;;;;;;;4.88;2.33;;;;;;;21.35;67.58;100736.59;5046876;28;20052;-66
2022/05/09 11:41:41;;;;;;;4.28;2.30;;;;;;;21.77;64.23;100735.72;5046591;28;20056;-66